PWSweather.com
Personal Weather Stations
Station Observations
KFLSTJOH36
Aberdeen Highland Point, Saint Johns, FL 32259

Aberdeen Highland PointSaint Johns, FL 32259

Lat: 30.082981, Lon: -81.59522

Elevation: 60

Station Type: Acurite 5-in-1 Weather Sensor

High Low Average
Temperature 90.0°F32.2°C 75.7°F24.3°C 83.1°F28.4°C
Dew Point 79.2°F26.2°C 73.7°F23.2°C 77.3°F25.2°C
Winds 17.0 mph 27.4 kmh Calm Calm 5.0 mph ENE8.0 kmh ENE
Wind Gusts -- -- --
Humidity 94% 68% 83%
Pressure 30.20 in1022.7 mb 30.12 in1020.0 mb -
Precipitation 0.01 in0.3 mm - -
Hour Temp Dew Point Humidity Winds Wind Gusts Pressure Precip Precip Rate Daily Precip Total
12:00 AM 77.7°F25.4°C 75.8°F24.3°C 94% Calm Calm -- 30.19 in1022.4 mb 0.00 in0.0 mm 0.00 in0.0 mm 0.00 in0.0 mm
12:10 AM 77.7°F25.4°C 75.8°F24.3°C 94% Calm Calm -- 30.19 in1022.4 mb 0.00 in0.0 mm 0.00 in0.0 mm 0.00 in0.0 mm
12:15 AM 77.7°F25.4°C 75.8°F24.3°C 94% Calm Calm -- 30.19 in1022.4 mb 0.00 in0.0 mm 0.00 in0.0 mm 0.00 in0.0 mm
12:20 AM 77.7°F25.4°C 75.8°F24.3°C 94% Calm Calm -- 30.18 in1022.0 mb 0.00 in0.0 mm 0.00 in0.0 mm 0.00 in0.0 mm
12:25 AM 77.7°F25.4°C 75.8°F24.3°C 94% Calm Calm -- 30.18 in1022.0 mb 0.00 in0.0 mm 0.00 in0.0 mm 0.00 in0.0 mm
12:30 AM 77.7°F25.4°C 75.8°F24.3°C 94% 2.0 mph ENE3.2 kmh ENE -- 30.18 in1022.0 mb 0.00 in0.0 mm 0.00 in0.0 mm 0.00 in0.0 mm
12:35 AM 77.9°F25.5°C 75.7°F24.3°C 93% Calm Calm -- 30.18 in1022.0 mb 0.00 in0.0 mm 0.00 in0.0 mm 0.00 in0.0 mm
12:40 AM 77.7°F25.4°C 75.5°F24.2°C 93% 2.0 mph ENE3.2 kmh ENE -- 30.18 in1022.0 mb 0.00 in0.0 mm 0.00 in0.0 mm 0.00 in0.0 mm
12:45 AM 77.7°F25.4°C 75.5°F24.2°C 93% Calm Calm -- 30.18 in1022.0 mb 0.00 in0.0 mm 0.00 in0.0 mm 0.00 in0.0 mm
12:50 AM 77.7°F25.4°C 75.5°F24.2°C 93% Calm Calm -- 30.18 in1022.0 mb 0.00 in0.0 mm 0.00 in0.0 mm 0.00 in0.0 mm
12:55 AM 77.7°F25.4°C 75.5°F24.2°C 93% 1.0 mph 1.6 kmh -- 30.17 in1021.7 mb 0.00 in0.0 mm 0.00 in0.0 mm 0.00 in0.0 mm
01:00 AM 77.7°F25.4°C 75.5°F24.2°C 93% Calm Calm -- 30.17 in1021.7 mb 0.00 in0.0 mm 0.00 in0.0 mm 0.00 in0.0 mm
01:05 AM 77.9°F25.5°C 75.7°F24.3°C 93% Calm Calm -- 30.17 in1021.7 mb 0.00 in0.0 mm 0.00 in0.0 mm 0.00 in0.0 mm
01:10 AM 77.9°F25.5°C 75.7°F24.3°C 93% Calm Calm -- 30.17 in1021.7 mb 0.00 in0.0 mm 0.00 in0.0 mm 0.00 in0.0 mm
01:20 AM 77.9°F25.5°C 75.7°F24.3°C 93% Calm Calm -- 30.17 in1021.7 mb 0.00 in0.0 mm 0.00 in0.0 mm 0.00 in0.0 mm
01:25 AM 78.1°F25.6°C 75.9°F24.4°C 93% Calm Calm -- 30.17 in1021.7 mb 0.00 in0.0 mm 0.00 in0.0 mm 0.00 in0.0 mm
01:30 AM 77.9°F25.5°C 75.7°F24.3°C 93% 1.0 mph NNE1.6 kmh NNE -- 30.17 in1021.7 mb 0.00 in0.0 mm 0.00 in0.0 mm 0.00 in0.0 mm
01:35 AM 78.1°F25.6°C 75.9°F24.4°C 93% Calm Calm -- 30.17 in1021.7 mb 0.00 in0.0 mm 0.00 in0.0 mm 0.00 in0.0 mm
01:40 AM 77.9°F25.5°C 75.7°F24.3°C 93% Calm Calm -- 30.16 in1021.3 mb 0.00 in0.0 mm 0.00 in0.0 mm 0.00 in0.0 mm
01:50 AM 77.7°F25.4°C 75.5°F24.2°C 93% Calm Calm -- 30.16 in1021.3 mb 0.00 in0.0 mm 0.00 in0.0 mm 0.00 in0.0 mm
01:55 AM 77.7°F25.4°C 75.5°F24.2°C 93% Calm Calm -- 30.16 in1021.3 mb 0.00 in0.0 mm 0.00 in0.0 mm 0.00 in0.0 mm
02:00 AM 77.7°F25.4°C 75.5°F24.2°C 93% Calm Calm -- 30.16 in1021.3 mb 0.00 in0.0 mm 0.00 in0.0 mm 0.00 in0.0 mm
02:05 AM 77.5°F25.3°C 75.3°F24.1°C 93% Calm Calm -- 30.16 in1021.3 mb 0.00 in0.0 mm 0.00 in0.0 mm 0.00 in0.0 mm
02:10 AM 77.7°F25.4°C 75.5°F24.2°C 93% Calm Calm -- 30.16 in1021.3 mb 0.00 in0.0 mm 0.00 in0.0 mm 0.00 in0.0 mm
02:15 AM 77.7°F25.4°C 75.5°F24.2°C 93% 1.0 mph NNE1.6 kmh NNE -- 30.16 in1021.3 mb 0.00 in0.0 mm 0.00 in0.0 mm 0.00 in0.0 mm
02:20 AM 77.9°F25.5°C 75.4°F24.1°C 92% Calm Calm -- 30.16 in1021.3 mb 0.00 in0.0 mm 0.00 in0.0 mm 0.00 in0.0 mm
02:25 AM 77.9°F25.5°C 75.4°F24.1°C 92% Calm Calm -- 30.15 in1021.0 mb 0.00 in0.0 mm 0.00 in0.0 mm 0.00 in0.0 mm
02:30 AM 77.7°F25.4°C 75.2°F24.0°C 92% Calm Calm -- 30.15 in1021.0 mb 0.00 in0.0 mm 0.00 in0.0 mm 0.00 in0.0 mm
02:35 AM 77.7°F25.4°C 75.2°F24.0°C 92% Calm Calm -- 30.15 in1021.0 mb 0.00 in0.0 mm 0.00 in0.0 mm 0.00 in0.0 mm
02:40 AM 77.5°F25.3°C 75.0°F23.9°C 92% Calm Calm -- 30.15 in1021.0 mb 0.00 in0.0 mm 0.00 in0.0 mm 0.00 in0.0 mm
02:45 AM 77.5°F25.3°C 75.0°F23.9°C 92% Calm Calm -- 30.15 in1021.0 mb 0.00 in0.0 mm 0.00 in0.0 mm 0.00 in0.0 mm
02:50 AM 77.4°F25.2°C 75.2°F24.0°C 93% Calm Calm -- 30.15 in1021.0 mb 0.00 in0.0 mm 0.00 in0.0 mm 0.00 in0.0 mm
03:00 AM 77.2°F25.1°C 75.0°F23.9°C 93% Calm Calm -- 30.15 in1021.0 mb 0.00 in0.0 mm 0.00 in0.0 mm 0.00 in0.0 mm
03:05 AM 76.8°F24.9°C 74.6°F23.7°C 93% Calm Calm -- 30.15 in1021.0 mb 0.00 in0.0 mm 0.00 in0.0 mm 0.00 in0.0 mm
03:25 AM 76.5°F24.7°C 74.3°F23.5°C 93% Calm Calm -- 30.15 in1021.0 mb 0.00 in0.0 mm 0.00 in0.0 mm 0.00 in0.0 mm
03:35 AM 76.3°F24.6°C 74.1°F23.4°C 93% Calm Calm -- 30.15 in1021.0 mb 0.00 in0.0 mm 0.00 in0.0 mm 0.00 in0.0 mm
03:45 AM 76.1°F24.5°C 73.9°F23.3°C 93% Calm Calm -- 30.15 in1021.0 mb 0.00 in0.0 mm 0.00 in0.0 mm 0.00 in0.0 mm
03:55 AM 75.9°F24.4°C 73.7°F23.2°C 93% Calm Calm -- 30.15 in1021.0 mb 0.00 in0.0 mm 0.00 in0.0 mm 0.00 in0.0 mm
04:00 AM 75.7°F24.3°C 73.9°F23.3°C 94% Calm Calm -- 30.15 in1021.0 mb 0.00 in0.0 mm 0.00 in0.0 mm 0.00 in0.0 mm
04:10 AM 75.9°F24.4°C 74.1°F23.4°C 94% Calm Calm -- 30.15 in1021.0 mb 0.00 in0.0 mm 0.00 in0.0 mm 0.00 in0.0 mm
04:20 AM 76.1°F24.5°C 74.2°F23.4°C 94% Calm Calm -- 30.15 in1021.0 mb 0.00 in0.0 mm 0.00 in0.0 mm 0.00 in0.0 mm
04:25 AM 76.1°F24.5°C 74.2°F23.4°C 94% Calm Calm -- 30.16 in1021.3 mb 0.00 in0.0 mm 0.00 in0.0 mm 0.00 in0.0 mm
04:30 AM 75.9°F24.4°C 74.1°F23.4°C 94% Calm Calm -- 30.15 in1021.0 mb 0.00 in0.0 mm 0.00 in0.0 mm 0.00 in0.0 mm
04:40 AM 75.9°F24.4°C 74.1°F23.4°C 94% Calm Calm -- 30.15 in1021.0 mb 0.00 in0.0 mm 0.00 in0.0 mm 0.00 in0.0 mm
04:55 AM 76.1°F24.5°C 74.2°F23.4°C 94% Calm Calm -- 30.15 in1021.0 mb 0.00 in0.0 mm 0.00 in0.0 mm 0.00 in0.0 mm
05:00 AM 76.3°F24.6°C 74.4°F23.6°C 94% Calm Calm -- 30.15 in1021.0 mb 0.00 in0.0 mm 0.00 in0.0 mm 0.00 in0.0 mm
05:05 AM 76.1°F24.5°C 74.2°F23.4°C 94% Calm Calm -- 30.15 in1021.0 mb 0.00 in0.0 mm 0.00 in0.0 mm 0.00 in0.0 mm
05:10 AM 76.1°F24.5°C 74.2°F23.4°C 94% Calm Calm -- 30.15 in1021.0 mb 0.00 in0.0 mm 0.00 in0.0 mm 0.00 in0.0 mm
05:20 AM 76.5°F24.7°C 74.6°F23.7°C 94% Calm Calm -- 30.15 in1021.0 mb 0.00 in0.0 mm 0.00 in0.0 mm 0.00 in0.0 mm
05:35 AM 76.5°F24.7°C 74.6°F23.7°C 94% Calm Calm -- 30.15 in1021.0 mb 0.00 in0.0 mm 0.00 in0.0 mm 0.00 in0.0 mm
05:40 AM 76.5°F24.7°C 74.6°F23.7°C 94% Calm Calm -- 30.15 in1021.0 mb 0.00 in0.0 mm 0.00 in0.0 mm 0.00 in0.0 mm
05:50 AM 76.5°F24.7°C 74.6°F23.7°C 94% Calm Calm -- 30.16 in1021.3 mb 0.00 in0.0 mm 0.00 in0.0 mm 0.00 in0.0 mm
05:55 AM 76.3°F24.6°C 74.4°F23.6°C 94% 2.0 mph ENE3.2 kmh ENE -- 30.16 in1021.3 mb 0.00 in0.0 mm 0.00 in0.0 mm 0.00 in0.0 mm
06:00 AM 77.0°F25.0°C 75.1°F23.9°C 94% 3.0 mph ESE4.8 kmh ESE -- 30.16 in1021.3 mb 0.00 in0.0 mm 0.00 in0.0 mm 0.00 in0.0 mm
06:05 AM 77.0°F25.0°C 75.1°F23.9°C 94% 5.0 mph ENE8.0 kmh ENE -- 30.16 in1021.3 mb 0.00 in0.0 mm 0.00 in0.0 mm 0.00 in0.0 mm
06:10 AM 77.4°F25.2°C 75.5°F24.2°C 94% 4.0 mph NE6.4 kmh NE -- 30.16 in1021.3 mb 0.00 in0.0 mm 0.00 in0.0 mm 0.00 in0.0 mm
06:15 AM 77.9°F25.5°C 75.4°F24.1°C 92% 2.0 mph 3.2 kmh -- 30.16 in1021.3 mb 0.00 in0.0 mm 0.00 in0.0 mm 0.00 in0.0 mm
06:20 AM 77.9°F25.5°C 75.4°F24.1°C 92% 4.0 mph ENE6.4 kmh ENE -- 30.16 in1021.3 mb 0.00 in0.0 mm 0.00 in0.0 mm 0.00 in0.0 mm
06:25 AM 78.1°F25.6°C 75.2°F24.0°C 91% 2.0 mph NNE3.2 kmh NNE -- 30.16 in1021.3 mb 0.00 in0.0 mm 0.00 in0.0 mm 0.00 in0.0 mm
06:30 AM 77.9°F25.5°C 75.1°F23.9°C 91% 5.0 mph E8.0 kmh E -- 30.16 in1021.3 mb 0.00 in0.0 mm 0.00 in0.0 mm 0.00 in0.0 mm
06:35 AM 77.9°F25.5°C 75.1°F23.9°C 91% 3.0 mph NW4.8 kmh NW -- 30.16 in1021.3 mb 0.00 in0.0 mm 0.00 in0.0 mm 0.00 in0.0 mm
06:40 AM 77.9°F25.5°C 75.1°F23.9°C 91% 4.0 mph NE6.4 kmh NE -- 30.17 in1021.7 mb 0.00 in0.0 mm 0.00 in0.0 mm 0.00 in0.0 mm
06:45 AM 78.1°F25.6°C 75.2°F24.0°C 91% 2.0 mph NE3.2 kmh NE -- 30.16 in1021.3 mb 0.00 in0.0 mm 0.00 in0.0 mm 0.00 in0.0 mm
06:50 AM 78.3°F25.7°C 75.4°F24.1°C 91% Calm Calm -- 30.17 in1021.7 mb 0.00 in0.0 mm 0.00 in0.0 mm 0.00 in0.0 mm
06:55 AM 78.1°F25.6°C 75.2°F24.0°C 91% 2.0 mph NNE3.2 kmh NNE -- 30.17 in1021.7 mb 0.00 in0.0 mm 0.00 in0.0 mm 0.00 in0.0 mm
07:00 AM 78.4°F25.8°C 75.6°F24.2°C 91% 3.0 mph NNE4.8 kmh NNE -- 30.17 in1021.7 mb 0.00 in0.0 mm 0.00 in0.0 mm 0.00 in0.0 mm
07:05 AM 79.2°F26.2°C 76.3°F24.6°C 91% 1.0 mph NNE1.6 kmh NNE -- 30.17 in1021.7 mb 0.00 in0.0 mm 0.00 in0.0 mm 0.00 in0.0 mm
07:10 AM 79.5°F26.4°C 76.7°F24.8°C 91% 3.0 mph ENE4.8 kmh ENE -- 30.17 in1021.7 mb 0.00 in0.0 mm 0.00 in0.0 mm 0.00 in0.0 mm
07:15 AM 80.1°F26.7°C 77.2°F25.1°C 91% 2.0 mph ENE3.2 kmh ENE -- 30.18 in1022.0 mb 0.00 in0.0 mm 0.00 in0.0 mm 0.00 in0.0 mm
07:20 AM 80.8°F27.1°C 77.6°F25.3°C 90% 2.0 mph ESE3.2 kmh ESE -- 30.18 in1022.0 mb 0.00 in0.0 mm 0.00 in0.0 mm 0.00 in0.0 mm
07:25 AM 81.5°F27.5°C 77.6°F25.3°C 88% 4.0 mph E6.4 kmh E -- 30.18 in1022.0 mb 0.00 in0.0 mm 0.00 in0.0 mm 0.00 in0.0 mm
07:30 AM 82.2°F27.9°C 78.0°F25.6°C 87% 2.0 mph NE3.2 kmh NE -- 30.18 in1022.0 mb 0.00 in0.0 mm 0.00 in0.0 mm 0.00 in0.0 mm
07:35 AM 82.9°F28.3°C 78.3°F25.7°C 86% 4.0 mph ENE6.4 kmh ENE -- 30.18 in1022.0 mb 0.00 in0.0 mm 0.00 in0.0 mm 0.00 in0.0 mm
07:40 AM 83.7°F28.7°C 78.7°F25.9°C 85% 5.0 mph E8.0 kmh E -- 30.18 in1022.0 mb 0.01 in0.3 mm 0.12 in3.0 mm 0.01 in0.3 mm
07:45 AM 83.8°F28.8°C 78.5°F25.8°C 84% 6.0 mph ENE9.7 kmh ENE -- 30.18 in1022.0 mb 0.01 in0.3 mm 0.00 in0.0 mm 0.01 in0.3 mm
07:50 AM 84.0°F28.9°C 78.3°F25.7°C 83% 4.0 mph ENE6.4 kmh ENE -- 30.18 in1022.0 mb 0.01 in0.3 mm 0.00 in0.0 mm 0.01 in0.3 mm
07:55 AM 84.6°F29.2°C 78.5°F25.8°C 82% 7.0 mph NE11.3 kmh NE -- 30.18 in1022.0 mb 0.01 in0.3 mm 0.00 in0.0 mm 0.01 in0.3 mm
08:00 AM 84.7°F29.3°C 78.3°F25.7°C 81% 4.0 mph 6.4 kmh -- 30.18 in1022.0 mb 0.01 in0.3 mm 0.00 in0.0 mm 0.01 in0.3 mm
08:05 AM 84.6°F29.2°C 78.1°F25.6°C 81% 3.0 mph NNW4.8 kmh NNW -- 30.18 in1022.0 mb 0.01 in0.3 mm 0.00 in0.0 mm 0.01 in0.3 mm
08:10 AM 84.6°F29.2°C 78.5°F25.8°C 82% 6.0 mph ENE9.7 kmh ENE -- 30.19 in1022.4 mb 0.01 in0.3 mm 0.00 in0.0 mm 0.01 in0.3 mm
08:15 AM 84.7°F29.3°C 78.3°F25.7°C 81% 4.0 mph NE6.4 kmh NE -- 30.19 in1022.4 mb 0.01 in0.3 mm 0.00 in0.0 mm 0.01 in0.3 mm
08:20 AM 85.3°F29.6°C 78.4°F25.8°C 80% 9.0 mph ESE14.5 kmh ESE -- 30.19 in1022.4 mb 0.01 in0.3 mm 0.00 in0.0 mm 0.01 in0.3 mm
08:25 AM 85.5°F29.7°C 78.2°F25.7°C 79% 10.0 mph ENE16.1 kmh ENE -- 30.20 in1022.7 mb 0.01 in0.3 mm 0.00 in0.0 mm 0.01 in0.3 mm
08:30 AM 85.1°F29.5°C 78.6°F25.9°C 81% 8.0 mph NE12.9 kmh NE -- 30.19 in1022.4 mb 0.01 in0.3 mm 0.00 in0.0 mm 0.01 in0.3 mm
08:35 AM 85.6°F29.8°C 78.4°F25.8°C 79% 6.0 mph 9.7 kmh -- 30.19 in1022.4 mb 0.00 in0.0 mm 0.00 in0.0 mm 0.01 in0.3 mm
08:40 AM 86.5°F30.3°C 78.9°F26.1°C 78% 9.0 mph NE14.5 kmh NE -- 30.19 in1022.4 mb 0.00 in0.0 mm 0.00 in0.0 mm 0.01 in0.3 mm
08:45 AM 85.1°F29.5°C 77.9°F25.5°C 79% 4.0 mph NNE6.4 kmh NNE -- 30.19 in1022.4 mb 0.00 in0.0 mm 0.00 in0.0 mm 0.01 in0.3 mm
08:50 AM 86.2°F30.1°C 78.1°F25.6°C 77% 9.0 mph ENE14.5 kmh ENE -- 30.19 in1022.4 mb 0.00 in0.0 mm 0.00 in0.0 mm 0.01 in0.3 mm
08:55 AM 86.4°F30.2°C 78.3°F25.7°C 77% 4.0 mph NW6.4 kmh NW -- 30.20 in1022.7 mb 0.00 in0.0 mm 0.00 in0.0 mm 0.01 in0.3 mm
09:00 AM 86.4°F30.2°C 78.3°F25.7°C 77% 5.0 mph ENE8.0 kmh ENE -- 30.20 in1022.7 mb 0.00 in0.0 mm 0.00 in0.0 mm 0.01 in0.3 mm
09:05 AM 86.7°F30.4°C 78.7°F25.9°C 77% 5.0 mph ENE8.0 kmh ENE -- 30.20 in1022.7 mb 0.00 in0.0 mm 0.00 in0.0 mm 0.01 in0.3 mm
09:10 AM 86.9°F30.5°C 78.4°F25.8°C 76% 6.0 mph ENE9.7 kmh ENE -- 30.20 in1022.7 mb 0.00 in0.0 mm 0.00 in0.0 mm 0.01 in0.3 mm
09:15 AM 86.2°F30.1°C 78.1°F25.6°C 77% 4.0 mph NNW6.4 kmh NNW -- 30.20 in1022.7 mb 0.00 in0.0 mm 0.00 in0.0 mm 0.01 in0.3 mm
09:20 AM 85.8°F29.9°C 78.2°F25.7°C 78% 8.0 mph NE12.9 kmh NE -- 30.19 in1022.4 mb 0.00 in0.0 mm 0.00 in0.0 mm 0.01 in0.3 mm
09:25 AM 85.6°F29.8°C 78.0°F25.6°C 78% 6.0 mph NE9.7 kmh NE -- 30.20 in1022.7 mb 0.00 in0.0 mm 0.00 in0.0 mm 0.01 in0.3 mm
09:30 AM 85.6°F29.8°C 78.4°F25.8°C 79% 6.0 mph E9.7 kmh E -- 30.20 in1022.7 mb 0.00 in0.0 mm 0.00 in0.0 mm 0.01 in0.3 mm
09:35 AM 85.8°F29.9°C 78.2°F25.7°C 78% 10.0 mph NNE16.1 kmh NNE -- 30.20 in1022.7 mb 0.00 in0.0 mm 0.00 in0.0 mm 0.01 in0.3 mm
09:40 AM 85.6°F29.8°C 78.4°F25.8°C 79% 7.0 mph E11.3 kmh E -- 30.20 in1022.7 mb 0.00 in0.0 mm 0.00 in0.0 mm 0.01 in0.3 mm
09:45 AM 86.7°F30.4°C 78.3°F25.7°C 76% 7.0 mph NNE11.3 kmh NNE -- 30.20 in1022.7 mb 0.00 in0.0 mm 0.00 in0.0 mm 0.01 in0.3 mm
09:50 AM 86.7°F30.4°C 78.3°F25.7°C 76% 14.0 mph NNE22.5 kmh NNE -- 30.20 in1022.7 mb 0.00 in0.0 mm 0.00 in0.0 mm 0.01 in0.3 mm
09:55 AM 86.9°F30.5°C 78.4°F25.8°C 76% 6.0 mph ENE9.7 kmh ENE -- 30.20 in1022.7 mb 0.00 in0.0 mm 0.00 in0.0 mm 0.01 in0.3 mm
10:00 AM 86.0°F30.0°C 78.0°F25.6°C 77% 8.0 mph ENE12.9 kmh ENE -- 30.20 in1022.7 mb 0.00 in0.0 mm 0.00 in0.0 mm 0.01 in0.3 mm
10:05 AM 86.9°F30.5°C 78.0°F25.6°C 75% 6.0 mph NNE9.7 kmh NNE -- 30.20 in1022.7 mb 0.00 in0.0 mm 0.00 in0.0 mm 0.01 in0.3 mm
10:10 AM 86.9°F30.5°C 76.8°F24.9°C 72% 15.0 mph ENE24.1 kmh ENE -- 30.20 in1022.7 mb 0.00 in0.0 mm 0.00 in0.0 mm 0.01 in0.3 mm
10:15 AM 86.5°F30.3°C 77.3°F25.2°C 74% 8.0 mph NE12.9 kmh NE -- 30.20 in1022.7 mb 0.00 in0.0 mm 0.00 in0.0 mm 0.01 in0.3 mm
10:20 AM 86.2°F30.1°C 76.9°F24.9°C 74% 7.0 mph NE11.3 kmh NE -- 30.20 in1022.7 mb 0.00 in0.0 mm 0.00 in0.0 mm 0.01 in0.3 mm
10:25 AM 87.3°F30.7°C 77.6°F25.3°C 73% 5.0 mph 8.0 kmh -- 30.20 in1022.7 mb 0.00 in0.0 mm 0.00 in0.0 mm 0.01 in0.3 mm
10:30 AM 87.3°F30.7°C 77.6°F25.3°C 73% 10.0 mph E16.1 kmh E -- 30.20 in1022.7 mb 0.00 in0.0 mm 0.00 in0.0 mm 0.01 in0.3 mm
10:35 AM 87.8°F31.0°C 78.1°F25.6°C 73% 7.0 mph ENE11.3 kmh ENE -- 30.20 in1022.7 mb 0.00 in0.0 mm 0.00 in0.0 mm 0.01 in0.3 mm
10:40 AM 87.8°F31.0°C 78.1°F25.6°C 73% 6.0 mph NNE9.7 kmh NNE -- 30.20 in1022.7 mb 0.00 in0.0 mm 0.00 in0.0 mm 0.01 in0.3 mm
10:45 AM 87.1°F30.6°C 77.8°F25.4°C 74% 7.0 mph 11.3 kmh -- 30.20 in1022.7 mb 0.00 in0.0 mm 0.00 in0.0 mm 0.01 in0.3 mm
10:50 AM 87.1°F30.6°C 78.2°F25.7°C 75% 6.0 mph ESE9.7 kmh ESE -- 30.20 in1022.7 mb 0.00 in0.0 mm 0.00 in0.0 mm 0.01 in0.3 mm
10:55 AM 86.4°F30.2°C 77.5°F25.3°C 75% 8.0 mph NNE12.9 kmh NNE -- 30.20 in1022.7 mb 0.00 in0.0 mm 0.00 in0.0 mm 0.01 in0.3 mm
11:00 AM 86.2°F30.1°C 77.7°F25.4°C 76% 7.0 mph NE11.3 kmh NE -- 30.20 in1022.7 mb 0.00 in0.0 mm 0.00 in0.0 mm 0.01 in0.3 mm
11:05 AM 86.7°F30.4°C 77.5°F25.3°C 74% 10.0 mph ENE16.1 kmh ENE -- 30.20 in1022.7 mb 0.00 in0.0 mm 0.00 in0.0 mm 0.01 in0.3 mm
11:10 AM 87.4°F30.8°C 78.2°F25.7°C 74% 14.0 mph NW22.5 kmh NW -- 30.20 in1022.7 mb 0.00 in0.0 mm 0.00 in0.0 mm 0.01 in0.3 mm
11:15 AM 86.7°F30.4°C 77.9°F25.5°C 75% 14.0 mph ENE22.5 kmh ENE -- 30.20 in1022.7 mb 0.00 in0.0 mm 0.00 in0.0 mm 0.01 in0.3 mm
11:20 AM 86.7°F30.4°C 77.9°F25.5°C 75% 8.0 mph E12.9 kmh E -- 30.20 in1022.7 mb 0.00 in0.0 mm 0.00 in0.0 mm 0.01 in0.3 mm
11:25 AM 85.8°F29.9°C 77.4°F25.2°C 76% 9.0 mph ENE14.5 kmh ENE -- 30.20 in1022.7 mb 0.00 in0.0 mm 0.00 in0.0 mm 0.01 in0.3 mm
11:30 AM 87.4°F30.8°C 78.2°F25.7°C 74% 12.0 mph ENE19.3 kmh ENE -- 30.20 in1022.7 mb 0.00 in0.0 mm 0.00 in0.0 mm 0.01 in0.3 mm
11:35 AM 87.6°F30.9°C 77.5°F25.3°C 72% 8.0 mph E12.9 kmh E -- 30.20 in1022.7 mb 0.00 in0.0 mm 0.00 in0.0 mm 0.01 in0.3 mm
11:40 AM 87.6°F30.9°C 77.9°F25.5°C 73% 11.0 mph NE17.7 kmh NE -- 30.20 in1022.7 mb 0.00 in0.0 mm 0.00 in0.0 mm 0.01 in0.3 mm
11:45 AM 88.0°F31.1°C 78.3°F25.7°C 73% 6.0 mph ENE9.7 kmh ENE -- 30.20 in1022.7 mb 0.00 in0.0 mm 0.00 in0.0 mm 0.01 in0.3 mm
11:50 AM 87.6°F30.9°C 77.1°F25.1°C 71% 13.0 mph E20.9 kmh E -- 30.19 in1022.4 mb 0.00 in0.0 mm 0.00 in0.0 mm 0.01 in0.3 mm
11:55 AM 87.3°F30.7°C 77.6°F25.3°C 73% 7.0 mph ENE11.3 kmh ENE -- 30.20 in1022.7 mb 0.00 in0.0 mm 0.00 in0.0 mm 0.01 in0.3 mm
12:00 PM 86.9°F30.5°C 77.6°F25.3°C 74% 9.0 mph E14.5 kmh E -- 30.19 in1022.4 mb 0.00 in0.0 mm 0.00 in0.0 mm 0.01 in0.3 mm
12:05 PM 87.4°F30.8°C 77.3°F25.2°C 72% 16.0 mph NE25.7 kmh NE -- 30.19 in1022.4 mb 0.00 in0.0 mm 0.00 in0.0 mm 0.01 in0.3 mm
12:10 PM 87.6°F30.9°C 77.1°F25.1°C 71% 7.0 mph NW11.3 kmh NW -- 30.19 in1022.4 mb 0.00 in0.0 mm 0.00 in0.0 mm 0.01 in0.3 mm
12:15 PM 88.0°F31.1°C 77.0°F25.0°C 70% 5.0 mph 8.0 kmh -- 30.19 in1022.4 mb 0.00 in0.0 mm 0.00 in0.0 mm 0.01 in0.3 mm
12:20 PM 87.3°F30.7°C 76.7°F24.8°C 71% 10.0 mph ENE16.1 kmh ENE -- 30.19 in1022.4 mb 0.00 in0.0 mm 0.00 in0.0 mm 0.01 in0.3 mm
12:25 PM 87.8°F31.0°C 78.1°F25.6°C 73% 9.0 mph ESE14.5 kmh ESE -- 30.19 in1022.4 mb 0.00 in0.0 mm 0.00 in0.0 mm 0.01 in0.3 mm
12:30 PM 88.9°F31.6°C 78.7°F25.9°C 72% 11.0 mph NNW17.7 kmh NNW -- 30.19 in1022.4 mb 0.00 in0.0 mm 0.00 in0.0 mm 0.01 in0.3 mm
12:35 PM 88.9°F31.6°C 78.3°F25.7°C 71% 11.0 mph NE17.7 kmh NE -- 30.19 in1022.4 mb 0.00 in0.0 mm 0.00 in0.0 mm 0.01 in0.3 mm
12:40 PM 89.8°F32.1°C 78.3°F25.7°C 69% 8.0 mph NE12.9 kmh NE -- 30.19 in1022.4 mb 0.00 in0.0 mm 0.00 in0.0 mm 0.01 in0.3 mm
12:45 PM 90.0°F32.2°C 78.0°F25.6°C 68% 8.0 mph E12.9 kmh E -- 30.19 in1022.4 mb 0.00 in0.0 mm 0.00 in0.0 mm 0.01 in0.3 mm
12:50 PM 89.1°F31.7°C 78.0°F25.6°C 70% 7.0 mph E11.3 kmh E -- 30.19 in1022.4 mb 0.00 in0.0 mm 0.00 in0.0 mm 0.01 in0.3 mm
12:55 PM 88.5°F31.4°C 77.9°F25.5°C 71% 8.0 mph NNE12.9 kmh NNE -- 30.18 in1022.0 mb 0.00 in0.0 mm 0.00 in0.0 mm 0.01 in0.3 mm
01:00 PM 88.5°F31.4°C 78.4°F25.8°C 72% 17.0 mph NE27.4 kmh NE -- 30.18 in1022.0 mb 0.00 in0.0 mm 0.00 in0.0 mm 0.01 in0.3 mm
01:05 PM 88.9°F31.6°C 78.7°F25.9°C 72% 6.0 mph NNE9.7 kmh NNE -- 30.18 in1022.0 mb 0.00 in0.0 mm 0.00 in0.0 mm 0.01 in0.3 mm
01:10 PM 89.4°F31.9°C 78.8°F26.0°C 71% 11.0 mph E17.7 kmh E -- 30.17 in1021.7 mb 0.00 in0.0 mm 0.00 in0.0 mm 0.01 in0.3 mm
01:15 PM 88.7°F31.5°C 78.5°F25.8°C 72% 8.0 mph E12.9 kmh E -- 30.17 in1021.7 mb 0.00 in0.0 mm 0.00 in0.0 mm 0.01 in0.3 mm
01:20 PM 88.7°F31.5°C 78.5°F25.8°C 72% 8.0 mph ENE12.9 kmh ENE -- 30.17 in1021.7 mb 0.00 in0.0 mm 0.00 in0.0 mm 0.01 in0.3 mm
01:25 PM 88.9°F31.6°C 78.3°F25.7°C 71% 8.0 mph ENE12.9 kmh ENE -- 30.17 in1021.7 mb 0.00 in0.0 mm 0.00 in0.0 mm 0.01 in0.3 mm
01:30 PM 88.9°F31.6°C 78.3°F25.7°C 71% 5.0 mph NNE8.0 kmh NNE -- 30.16 in1021.3 mb 0.00 in0.0 mm 0.00 in0.0 mm 0.01 in0.3 mm
01:35 PM 88.2°F31.2°C 78.0°F25.6°C 72% 8.0 mph ENE12.9 kmh ENE -- 30.16 in1021.3 mb 0.00 in0.0 mm 0.00 in0.0 mm 0.01 in0.3 mm
01:40 PM 88.3°F31.3°C 78.2°F25.7°C 72% 14.0 mph ENE22.5 kmh ENE -- 30.16 in1021.3 mb 0.00 in0.0 mm 0.00 in0.0 mm 0.01 in0.3 mm
01:45 PM 88.2°F31.2°C 78.0°F25.6°C 72% 8.0 mph 12.9 kmh -- 30.16 in1021.3 mb 0.00 in0.0 mm 0.00 in0.0 mm 0.01 in0.3 mm
01:50 PM 87.1°F30.6°C 77.8°F25.4°C 74% 12.0 mph NE19.3 kmh NE -- 30.15 in1021.0 mb 0.00 in0.0 mm 0.00 in0.0 mm 0.01 in0.3 mm
01:55 PM 88.0°F31.1°C 78.3°F25.7°C 73% 6.0 mph NNW9.7 kmh NNW -- 30.16 in1021.3 mb 0.00 in0.0 mm 0.00 in0.0 mm 0.01 in0.3 mm
02:00 PM 88.7°F31.5°C 78.5°F25.8°C 72% 10.0 mph NE16.1 kmh NE -- 30.15 in1021.0 mb 0.00 in0.0 mm 0.00 in0.0 mm 0.01 in0.3 mm
02:05 PM 88.3°F31.3°C 78.6°F25.9°C 73% 11.0 mph ENE17.7 kmh ENE -- 30.15 in1021.0 mb 0.00 in0.0 mm 0.00 in0.0 mm 0.01 in0.3 mm
02:10 PM 87.1°F30.6°C 77.8°F25.4°C 74% 16.0 mph NE25.7 kmh NE -- 30.15 in1021.0 mb 0.00 in0.0 mm 0.00 in0.0 mm 0.01 in0.3 mm
02:15 PM 86.9°F30.5°C 77.6°F25.3°C 74% 9.0 mph NE14.5 kmh NE -- 30.15 in1021.0 mb 0.00 in0.0 mm 0.00 in0.0 mm 0.01 in0.3 mm
02:20 PM 87.3°F30.7°C 78.0°F25.6°C 74% 7.0 mph NE11.3 kmh NE -- 30.15 in1021.0 mb 0.00 in0.0 mm 0.00 in0.0 mm 0.01 in0.3 mm
02:25 PM 87.8°F31.0°C 78.5°F25.8°C 74% 6.0 mph 9.7 kmh -- 30.15 in1021.0 mb 0.00 in0.0 mm 0.00 in0.0 mm 0.01 in0.3 mm
02:30 PM 87.4°F30.8°C 78.6°F25.9°C 75% 11.0 mph NNE17.7 kmh NNE -- 30.15 in1021.0 mb 0.00 in0.0 mm 0.00 in0.0 mm 0.01 in0.3 mm
02:35 PM 86.9°F30.5°C 78.0°F25.6°C 75% 17.0 mph ESE27.4 kmh ESE -- 30.15 in1021.0 mb 0.00 in0.0 mm 0.00 in0.0 mm 0.01 in0.3 mm
02:40 PM 86.9°F30.5°C 77.6°F25.3°C 74% 9.0 mph NNE14.5 kmh NNE -- 30.15 in1021.0 mb 0.00 in0.0 mm 0.00 in0.0 mm 0.01 in0.3 mm
02:45 PM 87.1°F30.6°C 77.8°F25.4°C 74% 9.0 mph ESE14.5 kmh ESE -- 30.15 in1021.0 mb 0.00 in0.0 mm 0.00 in0.0 mm 0.01 in0.3 mm
02:50 PM 88.5°F31.4°C 78.4°F25.8°C 72% 5.0 mph ENE8.0 kmh ENE -- 30.15 in1021.0 mb 0.00 in0.0 mm 0.00 in0.0 mm 0.01 in0.3 mm
02:55 PM 87.8°F31.0°C 78.5°F25.8°C 74% 6.0 mph NE9.7 kmh NE -- 30.15 in1021.0 mb 0.00 in0.0 mm 0.00 in0.0 mm 0.01 in0.3 mm
03:00 PM 87.3°F30.7°C 78.4°F25.8°C 75% 12.0 mph NE19.3 kmh NE -- 30.15 in1021.0 mb 0.00 in0.0 mm 0.00 in0.0 mm 0.01 in0.3 mm
03:05 PM 86.5°F30.3°C 78.1°F25.6°C 76% 11.0 mph ENE17.7 kmh ENE -- 30.15 in1021.0 mb 0.00 in0.0 mm 0.00 in0.0 mm 0.01 in0.3 mm
03:10 PM 86.2°F30.1°C 78.1°F25.6°C 77% 6.0 mph NNE9.7 kmh NNE -- 30.14 in1020.7 mb 0.00 in0.0 mm 0.00 in0.0 mm 0.01 in0.3 mm
03:15 PM 87.6°F30.9°C 78.7°F25.9°C 75% 7.0 mph ESE11.3 kmh ESE -- 30.15 in1021.0 mb 0.00 in0.0 mm 0.00 in0.0 mm 0.01 in0.3 mm
03:20 PM 86.4°F30.2°C 78.7°F25.9°C 78% 6.0 mph ENE9.7 kmh ENE -- 30.14 in1020.7 mb 0.00 in0.0 mm 0.00 in0.0 mm 0.01 in0.3 mm
03:25 PM 84.2°F29.0°C 78.5°F25.8°C 83% 5.0 mph NNE8.0 kmh NNE -- 30.14 in1020.7 mb 0.00 in0.0 mm 0.00 in0.0 mm 0.01 in0.3 mm
03:30 PM 84.2°F29.0°C 78.8°F26.0°C 84% 6.0 mph E9.7 kmh E -- 30.14 in1020.7 mb 0.00 in0.0 mm 0.00 in0.0 mm 0.01 in0.3 mm
03:35 PM 85.3°F29.6°C 79.2°F26.2°C 82% 4.0 mph NNE6.4 kmh NNE -- 30.14 in1020.7 mb 0.00 in0.0 mm 0.00 in0.0 mm 0.01 in0.3 mm
03:40 PM 86.2°F30.1°C 78.9°F26.1°C 79% 6.0 mph NNW9.7 kmh NNW -- 30.14 in1020.7 mb 0.00 in0.0 mm 0.00 in0.0 mm 0.01 in0.3 mm
03:45 PM 87.3°F30.7°C 78.4°F25.8°C 75% 14.0 mph ENE22.5 kmh ENE -- 30.14 in1020.7 mb 0.00 in0.0 mm 0.00 in0.0 mm 0.01 in0.3 mm
03:50 PM 87.3°F30.7°C 78.0°F25.6°C 74% 15.0 mph ENE24.1 kmh ENE -- 30.14 in1020.7 mb 0.00 in0.0 mm 0.00 in0.0 mm 0.01 in0.3 mm
03:55 PM 86.7°F30.4°C 77.9°F25.5°C 75% 12.0 mph NE19.3 kmh NE -- 30.14 in1020.7 mb 0.00 in0.0 mm 0.00 in0.0 mm 0.01 in0.3 mm
04:00 PM 86.5°F30.3°C 78.1°F25.6°C 76% 12.0 mph ENE19.3 kmh ENE -- 30.14 in1020.7 mb 0.00 in0.0 mm 0.00 in0.0 mm 0.01 in0.3 mm
04:05 PM 87.1°F30.6°C 78.2°F25.7°C 75% 14.0 mph ENE22.5 kmh ENE -- 30.14 in1020.7 mb 0.00 in0.0 mm 0.00 in0.0 mm 0.01 in0.3 mm
04:10 PM 86.9°F30.5°C 78.0°F25.6°C 75% 14.0 mph 22.5 kmh -- 30.14 in1020.7 mb 0.00 in0.0 mm 0.00 in0.0 mm 0.01 in0.3 mm
04:15 PM 86.9°F30.5°C 78.0°F25.6°C 75% 13.0 mph E20.9 kmh E -- 30.14 in1020.7 mb 0.00 in0.0 mm 0.00 in0.0 mm 0.01 in0.3 mm
04:20 PM 86.9°F30.5°C 78.4°F25.8°C 76% 8.0 mph NE12.9 kmh NE -- 30.14 in1020.7 mb 0.00 in0.0 mm 0.00 in0.0 mm 0.01 in0.3 mm
04:25 PM 86.4°F30.2°C 77.9°F25.5°C 76% 6.0 mph ENE9.7 kmh ENE -- 30.14 in1020.7 mb 0.00 in0.0 mm 0.00 in0.0 mm 0.01 in0.3 mm
04:30 PM 85.8°F29.9°C 78.2°F25.7°C 78% 6.0 mph NW9.7 kmh NW -- 30.14 in1020.7 mb 0.00 in0.0 mm 0.00 in0.0 mm 0.01 in0.3 mm
04:35 PM 86.2°F30.1°C 78.5°F25.8°C 78% 14.0 mph E22.5 kmh E -- 30.14 in1020.7 mb 0.00 in0.0 mm 0.00 in0.0 mm 0.01 in0.3 mm
04:40 PM 86.0°F30.0°C 78.3°F25.7°C 78% 4.0 mph 6.4 kmh -- 30.13 in1020.3 mb 0.00 in0.0 mm 0.00 in0.0 mm 0.01 in0.3 mm
04:45 PM 85.3°F29.6°C 78.0°F25.6°C 79% 7.0 mph E11.3 kmh E -- 30.13 in1020.3 mb 0.00 in0.0 mm 0.00 in0.0 mm 0.01 in0.3 mm
04:50 PM 84.9°F29.4°C 78.1°F25.6°C 80% 7.0 mph NE11.3 kmh NE -- 30.13 in1020.3 mb 0.00 in0.0 mm 0.00 in0.0 mm 0.01 in0.3 mm
04:55 PM 85.1°F29.5°C 78.2°F25.7°C 80% 12.0 mph E19.3 kmh E -- 30.13 in1020.3 mb 0.00 in0.0 mm 0.00 in0.0 mm 0.01 in0.3 mm
05:00 PM 85.5°F29.7°C 78.6°F25.9°C 80% 6.0 mph NE9.7 kmh NE -- 30.14 in1020.7 mb 0.00 in0.0 mm 0.00 in0.0 mm 0.01 in0.3 mm
05:05 PM 85.8°F29.9°C 78.9°F26.1°C 80% 4.0 mph 6.4 kmh -- 30.13 in1020.3 mb 0.00 in0.0 mm 0.00 in0.0 mm 0.01 in0.3 mm
05:10 PM 85.5°F29.7°C 78.2°F25.7°C 79% 6.0 mph NE9.7 kmh NE -- 30.13 in1020.3 mb 0.00 in0.0 mm 0.00 in0.0 mm 0.01 in0.3 mm
05:15 PM 84.9°F29.4°C 78.1°F25.6°C 80% 4.0 mph NE6.4 kmh NE -- 30.13 in1020.3 mb 0.00 in0.0 mm 0.00 in0.0 mm 0.01 in0.3 mm
05:20 PM 84.9°F29.4°C 78.1°F25.6°C 80% 6.0 mph ENE9.7 kmh ENE -- 30.13 in1020.3 mb 0.00 in0.0 mm 0.00 in0.0 mm 0.01 in0.3 mm
05:25 PM 84.9°F29.4°C 78.1°F25.6°C 80% 9.0 mph ENE14.5 kmh ENE -- 30.13 in1020.3 mb 0.00 in0.0 mm 0.00 in0.0 mm 0.01 in0.3 mm
05:30 PM 84.7°F29.3°C 77.9°F25.5°C 80% 4.0 mph NE6.4 kmh NE -- 30.13 in1020.3 mb 0.00 in0.0 mm 0.00 in0.0 mm 0.01 in0.3 mm
05:35 PM 84.2°F29.0°C 77.7°F25.4°C 81% 7.0 mph NW11.3 kmh NW -- 30.13 in1020.3 mb 0.00 in0.0 mm 0.00 in0.0 mm 0.01 in0.3 mm
05:40 PM 84.4°F29.1°C 77.9°F25.5°C 81% 4.0 mph NE6.4 kmh NE -- 30.13 in1020.3 mb 0.00 in0.0 mm 0.00 in0.0 mm 0.01 in0.3 mm
05:45 PM 84.0°F28.9°C 77.6°F25.3°C 81% 9.0 mph NE14.5 kmh NE -- 30.13 in1020.3 mb 0.00 in0.0 mm 0.00 in0.0 mm 0.01 in0.3 mm
05:50 PM 84.0°F28.9°C 77.6°F25.3°C 81% 5.0 mph ENE8.0 kmh ENE -- 30.13 in1020.3 mb 0.00 in0.0 mm 0.00 in0.0 mm 0.01 in0.3 mm
05:55 PM 84.0°F28.9°C 77.6°F25.3°C 81% 5.0 mph E8.0 kmh E -- 30.13 in1020.3 mb 0.00 in0.0 mm 0.00 in0.0 mm 0.01 in0.3 mm
06:00 PM 83.8°F28.8°C 77.4°F25.2°C 81% 3.0 mph NE4.8 kmh NE -- 30.13 in1020.3 mb 0.00 in0.0 mm 0.00 in0.0 mm 0.01 in0.3 mm
06:05 PM 83.7°F28.7°C 77.6°F25.3°C 82% 4.0 mph NNE6.4 kmh NNE -- 30.13 in1020.3 mb 0.00 in0.0 mm 0.00 in0.0 mm 0.01 in0.3 mm
06:10 PM 83.7°F28.7°C 77.6°F25.3°C 82% 5.0 mph ENE8.0 kmh ENE -- 30.12 in1020.0 mb 0.00 in0.0 mm 0.00 in0.0 mm 0.01 in0.3 mm
06:15 PM 83.7°F28.7°C 77.6°F25.3°C 82% 5.0 mph NNE8.0 kmh NNE -- 30.13 in1020.3 mb 0.00 in0.0 mm 0.00 in0.0 mm 0.01 in0.3 mm
06:20 PM 83.7°F28.7°C 77.6°F25.3°C 82% 6.0 mph NNE9.7 kmh NNE -- 30.12 in1020.0 mb 0.00 in0.0 mm 0.00 in0.0 mm 0.01 in0.3 mm
06:25 PM 83.5°F28.6°C 77.4°F25.2°C 82% 4.0 mph NNE6.4 kmh NNE -- 30.12 in1020.0 mb 0.00 in0.0 mm 0.00 in0.0 mm 0.01 in0.3 mm
06:30 PM 83.3°F28.5°C 77.2°F25.1°C 82% 5.0 mph ENE8.0 kmh ENE -- 30.12 in1020.0 mb 0.00 in0.0 mm 0.00 in0.0 mm 0.01 in0.3 mm
06:35 PM 83.1°F28.4°C 77.1°F25.1°C 82% 6.0 mph ENE9.7 kmh ENE -- 30.13 in1020.3 mb 0.00 in0.0 mm 0.00 in0.0 mm 0.01 in0.3 mm
06:40 PM 83.1°F28.4°C 77.4°F25.2°C 83% 5.0 mph ENE8.0 kmh ENE -- 30.13 in1020.3 mb 0.00 in0.0 mm 0.00 in0.0 mm 0.01 in0.3 mm
06:45 PM 83.1°F28.4°C 77.4°F25.2°C 83% 3.0 mph NNW4.8 kmh NNW -- 30.13 in1020.3 mb 0.00 in0.0 mm 0.00 in0.0 mm 0.01 in0.3 mm
06:50 PM 83.1°F28.4°C 77.4°F25.2°C 83% 12.0 mph NE19.3 kmh NE -- 30.13 in1020.3 mb 0.00 in0.0 mm 0.00 in0.0 mm 0.01 in0.3 mm
06:55 PM 83.1°F28.4°C 77.4°F25.2°C 83% 3.0 mph NE4.8 kmh NE -- 30.13 in1020.3 mb 0.00 in0.0 mm 0.00 in0.0 mm 0.01 in0.3 mm
07:00 PM 83.1°F28.4°C 77.4°F25.2°C 83% 8.0 mph ENE12.9 kmh ENE -- 30.13 in1020.3 mb 0.00 in0.0 mm 0.00 in0.0 mm 0.01 in0.3 mm
07:05 PM 82.9°F28.3°C 77.6°F25.3°C 84% 8.0 mph NE12.9 kmh NE -- 30.13 in1020.3 mb 0.00 in0.0 mm 0.00 in0.0 mm 0.01 in0.3 mm
07:10 PM 82.9°F28.3°C 77.6°F25.3°C 84% 6.0 mph ENE9.7 kmh ENE -- 30.13 in1020.3 mb 0.00 in0.0 mm 0.00 in0.0 mm 0.01 in0.3 mm
07:15 PM 82.9°F28.3°C 77.6°F25.3°C 84% 5.0 mph NW8.0 kmh NW -- 30.13 in1020.3 mb 0.00 in0.0 mm 0.00 in0.0 mm 0.01 in0.3 mm
07:20 PM 82.9°F28.3°C 77.6°F25.3°C 84% 5.0 mph ENE8.0 kmh ENE -- 30.13 in1020.3 mb 0.00 in0.0 mm 0.00 in0.0 mm 0.01 in0.3 mm
07:25 PM 82.9°F28.3°C 77.6°F25.3°C 84% 7.0 mph NE11.3 kmh NE -- 30.13 in1020.3 mb 0.00 in0.0 mm 0.00 in0.0 mm 0.01 in0.3 mm
07:30 PM 82.9°F28.3°C 77.6°F25.3°C 84% 5.0 mph NW8.0 kmh NW -- 30.13 in1020.3 mb 0.00 in0.0 mm 0.00 in0.0 mm 0.01 in0.3 mm
07:40 PM 82.9°F28.3°C 77.6°F25.3°C 84% 5.0 mph E8.0 kmh E -- 30.13 in1020.3 mb 0.00 in0.0 mm 0.00 in0.0 mm 0.01 in0.3 mm
07:45 PM 82.9°F28.3°C 77.6°F25.3°C 84% 6.0 mph NE9.7 kmh NE -- 30.13 in1020.3 mb 0.00 in0.0 mm 0.00 in0.0 mm 0.01 in0.3 mm
07:50 PM 82.9°F28.3°C 77.6°F25.3°C 84% 7.0 mph ENE11.3 kmh ENE -- 30.13 in1020.3 mb 0.00 in0.0 mm 0.00 in0.0 mm 0.01 in0.3 mm
07:55 PM 82.9°F28.3°C 77.6°F25.3°C 84% 11.0 mph ENE17.7 kmh ENE -- 30.13 in1020.3 mb 0.00 in0.0 mm 0.00 in0.0 mm 0.01 in0.3 mm
08:00 PM 82.9°F28.3°C 78.0°F25.6°C 85% 6.0 mph 9.7 kmh -- 30.14 in1020.7 mb 0.00 in0.0 mm 0.00 in0.0 mm 0.01 in0.3 mm
08:05 PM 82.9°F28.3°C 78.0°F25.6°C 85% 5.0 mph NE8.0 kmh NE -- 30.14 in1020.7 mb 0.00 in0.0 mm 0.00 in0.0 mm 0.01 in0.3 mm
08:10 PM 82.9°F28.3°C 78.0°F25.6°C 85% 3.0 mph 4.8 kmh -- 30.13 in1020.3 mb 0.00 in0.0 mm 0.00 in0.0 mm 0.01 in0.3 mm
08:15 PM 82.9°F28.3°C 78.0°F25.6°C 85% 8.0 mph 12.9 kmh -- 30.13 in1020.3 mb 0.00 in0.0 mm 0.00 in0.0 mm 0.01 in0.3 mm
08:20 PM 82.9°F28.3°C 78.0°F25.6°C 85% 5.0 mph E8.0 kmh E -- 30.13 in1020.3 mb 0.00 in0.0 mm 0.00 in0.0 mm 0.01 in0.3 mm
08:25 PM 82.9°F28.3°C 78.0°F25.6°C 85% 8.0 mph E12.9 kmh E -- 30.13 in1020.3 mb 0.00 in0.0 mm 0.00 in0.0 mm 0.01 in0.3 mm
08:30 PM 82.9°F28.3°C 78.3°F25.7°C 86% 8.0 mph NE12.9 kmh NE -- 30.13 in1020.3 mb 0.00 in0.0 mm 0.00 in0.0 mm 0.01 in0.3 mm
08:35 PM 82.8°F28.2°C 78.1°F25.6°C 86% 3.0 mph NW4.8 kmh NW -- 30.14 in1020.7 mb 0.00 in0.0 mm 0.00 in0.0 mm 0.01 in0.3 mm
08:40 PM 82.6°F28.1°C 78.0°F25.6°C 86% 8.0 mph ENE12.9 kmh ENE -- 30.14 in1020.7 mb 0.00 in0.0 mm 0.00 in0.0 mm 0.01 in0.3 mm
08:45 PM 82.6°F28.1°C 78.3°F25.7°C 87% 5.0 mph E8.0 kmh E -- 30.14 in1020.7 mb 0.00 in0.0 mm 0.00 in0.0 mm 0.01 in0.3 mm
08:50 PM 82.6°F28.1°C 78.3°F25.7°C 87% 3.0 mph NE4.8 kmh NE -- 30.14 in1020.7 mb 0.00 in0.0 mm 0.00 in0.0 mm 0.01 in0.3 mm
08:55 PM 82.6°F28.1°C 78.3°F25.7°C 87% 5.0 mph ENE8.0 kmh ENE -- 30.14 in1020.7 mb 0.00 in0.0 mm 0.00 in0.0 mm 0.01 in0.3 mm
09:00 PM 82.6°F28.1°C 78.3°F25.7°C 87% 5.0 mph NE8.0 kmh NE -- 30.14 in1020.7 mb 0.00 in0.0 mm 0.00 in0.0 mm 0.01 in0.3 mm
09:05 PM 82.8°F28.2°C 78.5°F25.8°C 87% 3.0 mph ENE4.8 kmh ENE -- 30.14 in1020.7 mb 0.00 in0.0 mm 0.00 in0.0 mm 0.01 in0.3 mm
09:10 PM 82.8°F28.2°C 78.5°F25.8°C 87% 5.0 mph NE8.0 kmh NE -- 30.14 in1020.7 mb 0.00 in0.0 mm 0.00 in0.0 mm 0.01 in0.3 mm
09:15 PM 82.8°F28.2°C 78.5°F25.8°C 87% 4.0 mph NE6.4 kmh NE -- 30.14 in1020.7 mb 0.00 in0.0 mm 0.00 in0.0 mm 0.01 in0.3 mm
09:20 PM 82.8°F28.2°C 78.5°F25.8°C 87% 10.0 mph E16.1 kmh E -- 30.15 in1021.0 mb 0.00 in0.0 mm 0.00 in0.0 mm 0.01 in0.3 mm
09:25 PM 82.6°F28.1°C 78.3°F25.7°C 87% 6.0 mph NE9.7 kmh NE -- 30.15 in1021.0 mb 0.00 in0.0 mm 0.00 in0.0 mm 0.01 in0.3 mm
09:30 PM 82.4°F28.0°C 77.8°F25.4°C 86% 9.0 mph NE14.5 kmh NE -- 30.15 in1021.0 mb 0.00 in0.0 mm 0.00 in0.0 mm 0.01 in0.3 mm
09:35 PM 82.4°F28.0°C 77.8°F25.4°C 86% 5.0 mph NNE8.0 kmh NNE -- 30.15 in1021.0 mb 0.00 in0.0 mm 0.00 in0.0 mm 0.01 in0.3 mm
09:40 PM 82.2°F27.9°C 77.6°F25.3°C 86% 2.0 mph E3.2 kmh E -- 30.15 in1021.0 mb 0.00 in0.0 mm 0.00 in0.0 mm 0.01 in0.3 mm
09:45 PM 82.2°F27.9°C 77.6°F25.3°C 86% 9.0 mph ENE14.5 kmh ENE -- 30.15 in1021.0 mb 0.00 in0.0 mm 0.00 in0.0 mm 0.01 in0.3 mm
09:50 PM 81.9°F27.7°C 77.3°F25.2°C 86% 3.0 mph ENE4.8 kmh ENE -- 30.15 in1021.0 mb 0.00 in0.0 mm 0.00 in0.0 mm 0.01 in0.3 mm
09:55 PM 81.9°F27.7°C 77.3°F25.2°C 86% 8.0 mph E12.9 kmh E -- 30.14 in1020.7 mb 0.00 in0.0 mm 0.00 in0.0 mm 0.01 in0.3 mm
10:00 PM 81.9°F27.7°C 77.3°F25.2°C 86% 6.0 mph NE9.7 kmh NE -- 30.14 in1020.7 mb 0.00 in0.0 mm 0.00 in0.0 mm 0.01 in0.3 mm
10:05 PM 82.0°F27.8°C 77.4°F25.2°C 86% 3.0 mph ESE4.8 kmh ESE -- 30.14 in1020.7 mb 0.00 in0.0 mm 0.00 in0.0 mm 0.01 in0.3 mm
10:10 PM 82.0°F27.8°C 77.4°F25.2°C 86% 2.0 mph ENE3.2 kmh ENE -- 30.14 in1020.7 mb 0.00 in0.0 mm 0.00 in0.0 mm 0.01 in0.3 mm
10:15 PM 82.0°F27.8°C 77.4°F25.2°C 86% 1.0 mph NE1.6 kmh NE -- 30.14 in1020.7 mb 0.00 in0.0 mm 0.00 in0.0 mm 0.01 in0.3 mm
10:20 PM 81.9°F27.7°C 77.6°F25.3°C 87% 3.0 mph NE4.8 kmh NE -- 30.14 in1020.7 mb 0.00 in0.0 mm 0.00 in0.0 mm 0.01 in0.3 mm
10:25 PM 81.7°F27.6°C 77.8°F25.4°C 88% 3.0 mph NE4.8 kmh NE -- 30.14 in1020.7 mb 0.00 in0.0 mm 0.00 in0.0 mm 0.01 in0.3 mm
10:30 PM 81.7°F27.6°C 77.8°F25.4°C 88% 2.0 mph NNE3.2 kmh NNE -- 30.14 in1020.7 mb 0.00 in0.0 mm 0.00 in0.0 mm 0.01 in0.3 mm
10:35 PM 81.7°F27.6°C 78.1°F25.6°C 89% 2.0 mph NNE3.2 kmh NNE -- 30.14 in1020.7 mb 0.00 in0.0 mm 0.00 in0.0 mm 0.01 in0.3 mm
10:40 PM 81.7°F27.6°C 78.1°F25.6°C 89% 5.0 mph NNE8.0 kmh NNE -- 30.14 in1020.7 mb 0.00 in0.0 mm 0.00 in0.0 mm 0.01 in0.3 mm
10:45 PM 81.5°F27.5°C 77.9°F25.5°C 89% 4.0 mph WNW6.4 kmh WNW -- 30.14 in1020.7 mb 0.00 in0.0 mm 0.00 in0.0 mm 0.01 in0.3 mm
10:50 PM 81.3°F27.4°C 77.8°F25.4°C 89% 2.0 mph WNW3.2 kmh WNW -- 30.13 in1020.3 mb 0.00 in0.0 mm 0.00 in0.0 mm 0.01 in0.3 mm
10:55 PM 81.3°F27.4°C 78.1°F25.6°C 90% 3.0 mph NE4.8 kmh NE -- 30.13 in1020.3 mb 0.00 in0.0 mm 0.00 in0.0 mm 0.01 in0.3 mm
11:00 PM 81.5°F27.5°C 78.3°F25.7°C 90% 3.0 mph ENE4.8 kmh ENE -- 30.13 in1020.3 mb 0.00 in0.0 mm 0.00 in0.0 mm 0.01 in0.3 mm
11:05 PM 81.5°F27.5°C 78.3°F25.7°C 90% 4.0 mph NNE6.4 kmh NNE -- 30.13 in1020.3 mb 0.00 in0.0 mm 0.00 in0.0 mm 0.01 in0.3 mm
11:10 PM 81.5°F27.5°C 78.3°F25.7°C 90% 8.0 mph NE12.9 kmh NE -- 30.13 in1020.3 mb 0.00 in0.0 mm 0.00 in0.0 mm 0.01 in0.3 mm
11:15 PM 81.9°F27.7°C 78.3°F25.7°C 89% 2.0 mph 3.2 kmh -- 30.13 in1020.3 mb 0.00 in0.0 mm 0.00 in0.0 mm 0.01 in0.3 mm
11:20 PM 81.9°F27.7°C 78.3°F25.7°C 89% 5.0 mph ENE8.0 kmh ENE -- 30.13 in1020.3 mb 0.00 in0.0 mm 0.00 in0.0 mm 0.01 in0.3 mm
11:25 PM 82.0°F27.8°C 78.5°F25.8°C 89% 3.0 mph ENE4.8 kmh ENE -- 30.13 in1020.3 mb 0.00 in0.0 mm 0.00 in0.0 mm 0.01 in0.3 mm
11:30 PM 82.0°F27.8°C 78.1°F25.6°C 88% 4.0 mph ENE6.4 kmh ENE -- 30.13 in1020.3 mb 0.00 in0.0 mm 0.00 in0.0 mm 0.01 in0.3 mm
11:35 PM 82.0°F27.8°C 78.1°F25.6°C 88% 4.0 mph ENE6.4 kmh ENE -- 30.12 in1020.0 mb 0.00 in0.0 mm 0.00 in0.0 mm 0.01 in0.3 mm
11:40 PM 82.0°F27.8°C 78.1°F25.6°C 88% 5.0 mph NE8.0 kmh NE -- 30.12 in1020.0 mb 0.00 in0.0 mm 0.00 in0.0 mm 0.01 in0.3 mm
11:45 PM 82.0°F27.8°C 77.8°F25.4°C 87% 5.0 mph ENE8.0 kmh ENE -- 30.12 in1020.0 mb 0.00 in0.0 mm 0.00 in0.0 mm 0.01 in0.3 mm
11:50 PM 82.2°F27.9°C 78.0°F25.6°C 87% 5.0 mph NE8.0 kmh NE -- 30.12 in1020.0 mb 0.00 in0.0 mm 0.00 in0.0 mm 0.01 in0.3 mm
11:55 PM 82.2°F27.9°C 78.0°F25.6°C 87% 4.0 mph ENE6.4 kmh ENE -- 30.12 in1020.0 mb 0.00 in0.0 mm 0.00 in0.0 mm 0.01 in0.3 mm